createdAt,value
2022-10-09T00:01:31.174Z,19.67
2022-10-09T00:03:59.600Z,19.64
2022-10-09T00:06:30.791Z,19.68
2022-10-09T00:09:01.908Z,19.75
2022-10-09T00:11:31.864Z,19.71
2022-10-09T00:14:00.881Z,19.77
2022-10-09T00:16:29.643Z,19.78
2022-10-09T00:18:58.156Z,19.77
2022-10-09T00:21:31.978Z,19.82
2022-10-09T00:24:01.873Z,19.76
2022-10-09T00:26:30.132Z,19.72
2022-10-09T00:28:58.904Z,19.53
2022-10-09T00:31:26.601Z,19.46
2022-10-09T00:33:54.051Z,19.39
2022-10-09T00:36:25.794Z,19.39
2022-10-09T00:38:54.933Z,19.28
2022-10-09T00:41:26.407Z,19.36
2022-10-09T00:43:59.957Z,19.34
2022-10-09T00:46:33.694Z,19.00
2022-10-09T00:49:13.471Z,18.99
2022-10-09T00:51:44.880Z,18.97
2022-10-09T00:54:16.376Z,18.93
2022-10-09T00:56:44.192Z,18.97
2022-10-09T00:59:12.665Z,19.11
2022-10-09T01:01:41.769Z,19.10
2022-10-09T01:04:09.741Z,19.05
2022-10-09T01:06:43.173Z,18.87
2022-10-09T01:09:18.421Z,18.96
2022-10-09T01:12:09.253Z,19.10
2022-10-09T01:14:50.531Z,19.16
2022-10-09T01:17:29.443Z,19.04
2022-10-09T01:20:03.208Z,18.94
2022-10-09T01:23:18.028Z,19.08
2022-10-09T01:26:20.580Z,19.15
2022-10-09T01:28:56.721Z,19.24
2022-10-09T01:31:27.818Z,19.12
2022-10-09T01:33:55.564Z,19.23
2022-10-09T01:36:24.624Z,19.29
2022-10-09T01:38:53.752Z,19.43
2022-10-09T01:41:21.675Z,19.57
2022-10-09T01:43:49.197Z,19.34
2022-10-09T01:46:28.814Z,19.42
2022-10-09T01:49:29.116Z,19.30
2022-10-09T01:52:23.551Z,19.19
2022-10-09T01:55:08.793Z,19.23
2022-10-09T01:57:56.514Z,19.42
2022-10-09T02:00:24.706Z,19.27
2022-10-09T02:02:54.016Z,19.27
2022-10-09T02:05:26.113Z,19.25
2022-10-09T02:07:54.801Z,19.08
2022-10-09T02:10:25.231Z,19.12
2022-10-09T02:12:57.848Z,19.27
2022-10-09T02:15:32.980Z,19.35
2022-10-09T02:18:08.501Z,19.30
2022-10-09T02:20:39.663Z,19.12
2022-10-09T02:23:09.298Z,19.05
2022-10-09T02:25:37.754Z,19.00
2022-10-09T02:28:06.057Z,19.00
2022-10-09T02:30:48.197Z,18.91
2022-10-09T02:33:15.771Z,18.95
2022-10-09T02:35:43.884Z,18.91
2022-10-09T02:38:11.481Z,19.02
2022-10-09T02:40:38.989Z,18.96
2022-10-09T02:43:06.497Z,18.85
2022-10-09T02:45:34.838Z,18.83
2022-10-09T02:48:02.314Z,18.72
2022-10-09T02:50:29.845Z,18.91
2022-10-09T02:52:57.403Z,18.86
2022-10-09T02:55:24.877Z,18.92
2022-10-09T02:57:52.869Z,18.91
2022-10-09T03:00:20.395Z,18.97
2022-10-09T03:02:48.158Z,18.97
2022-10-09T03:05:15.965Z,18.79
2022-10-09T03:07:51.090Z,18.84
2022-10-09T03:10:20.617Z,18.70
2022-10-09T03:12:48.949Z,18.58
2022-10-09T03:15:16.817Z,18.74
2022-10-09T03:17:45.058Z,18.69
2022-10-09T03:20:13.130Z,18.77
2022-10-09T03:22:41.247Z,18.75
2022-10-09T03:25:09.440Z,18.72
2022-10-09T03:27:37.559Z,18.76
2022-10-09T03:30:06.361Z,18.75
2022-10-09T03:32:34.050Z,18.71
2022-10-09T03:35:02.174Z,18.81
2022-10-09T03:37:29.655Z,18.75
2022-10-09T03:39:57.436Z,18.84
2022-10-09T03:42:25.294Z,18.98
2022-10-09T03:44:53.662Z,18.85
2022-10-09T03:47:21.227Z,18.82
2022-10-09T03:49:48.944Z,18.82
2022-10-09T03:52:16.716Z,18.89
2022-10-09T03:54:44.187Z,18.82
2022-10-09T03:57:11.693Z,18.63
2022-10-09T03:59:39.303Z,18.60
2022-10-09T04:02:07.554Z,18.67
2022-10-09T04:04:35.052Z,18.71
2022-10-09T04:07:02.562Z,18.59
2022-10-09T04:09:30.075Z,18.61
2022-10-09T04:11:58.436Z,18.62
2022-10-09T04:14:25.973Z,18.63
2022-10-09T04:16:54.020Z,18.67
2022-10-09T04:19:21.488Z,18.79
2022-10-09T04:21:49.920Z,18.67
2022-10-09T04:24:18.126Z,18.72
2022-10-09T04:26:45.657Z,18.60
2022-10-09T04:29:13.934Z,18.62
2022-10-09T04:31:41.643Z,18.51
2022-10-09T04:34:09.287Z,18.53
2022-10-09T04:36:37.621Z,18.69
2022-10-09T04:39:05.747Z,18.62
2022-10-09T04:41:37.986Z,18.63
2022-10-09T04:44:06.280Z,18.69
2022-10-09T04:46:33.923Z,18.71
2022-10-09T04:49:01.468Z,18.77
2022-10-09T04:51:29.666Z,18.72
2022-10-09T04:54:00.616Z,18.63
2022-10-09T04:56:28.902Z,18.49
2022-10-09T04:58:56.916Z,18.56
2022-10-09T05:01:27.300Z,18.48
2022-10-09T05:03:56.225Z,18.40
2022-10-09T05:06:25.069Z,18.43
2022-10-09T05:08:53.377Z,18.37
2022-10-09T05:11:23.687Z,18.40
2022-10-09T05:13:53.893Z,18.53
2022-10-09T05:16:27.717Z,18.53
2022-10-09T05:18:58.196Z,18.36
2022-10-09T05:21:27.925Z,18.37
2022-10-09T05:23:56.504Z,18.45
2022-10-09T05:26:25.840Z,18.40
2022-10-09T05:28:53.541Z,18.45
2022-10-09T05:31:26.604Z,18.42
2022-10-09T05:33:56.011Z,18.47
2022-10-09T05:36:23.752Z,18.27
2022-10-09T05:38:52.077Z,18.33
2022-10-09T05:41:20.160Z,18.27
2022-10-09T05:43:49.413Z,18.19
2022-10-09T05:46:25.533Z,18.26
2022-10-09T05:48:55.911Z,18.09
2022-10-09T05:51:28.931Z,18.18
2022-10-09T05:53:57.212Z,18.08
2022-10-09T05:56:30.416Z,17.93
2022-10-09T05:59:03.884Z,17.92
2022-10-09T06:01:41.269Z,17.91
2022-10-09T06:04:13.442Z,17.88
2022-10-09T06:06:41.557Z,18.03
2022-10-09T06:09:11.087Z,18.12
2022-10-09T06:11:40.537Z,18.10
2022-10-09T06:14:10.957Z,17.93
2022-10-09T06:16:41.449Z,18.04
2022-10-09T06:19:12.194Z,17.94
2022-10-09T06:21:39.899Z,18.02
2022-10-09T06:24:08.026Z,18.21
2022-10-09T06:26:35.568Z,18.14
2022-10-09T06:29:03.558Z,18.15
2022-10-09T06:31:32.916Z,18.09
2022-10-09T06:34:01.964Z,18.34
2022-10-09T06:36:33.414Z,18.32
2022-10-09T06:39:03.699Z,18.40
2022-10-09T06:41:31.769Z,18.59
2022-10-09T06:44:01.968Z,18.54
2022-10-09T06:46:35.707Z,18.64
2022-10-09T06:49:04.957Z,18.60
2022-10-09T06:51:33.807Z,18.60
2022-10-09T06:54:04.494Z,18.72
2022-10-09T06:56:32.475Z,18.93
2022-10-09T06:59:02.526Z,18.87
2022-10-09T07:01:34.686Z,19.06
2022-10-09T07:04:09.875Z,19.12
2022-10-09T07:06:39.956Z,19.40
2022-10-09T07:09:11.295Z,19.38
2022-10-09T07:11:44.926Z,19.36
2022-10-09T07:14:14.306Z,19.60
2022-10-09T07:16:44.790Z,19.65
2022-10-09T07:19:13.977Z,20.03
2022-10-09T07:21:44.229Z,20.42
2022-10-09T07:24:13.404Z,20.25
2022-10-09T07:26:44.181Z,20.24
2022-10-09T07:29:14.551Z,20.35
2022-10-09T07:31:43.199Z,20.56
2022-10-09T07:34:11.483Z,20.61
2022-10-09T07:36:39.618Z,20.88
2022-10-09T07:39:07.604Z,20.74
2022-10-09T07:41:35.462Z,20.78
2022-10-09T07:44:03.228Z,20.94
2022-10-09T07:46:34.028Z,21.11
2022-10-09T07:49:03.111Z,21.53
2022-10-09T07:51:32.790Z,21.28
2022-10-09T07:54:02.150Z,21.57
2022-10-09T07:56:35.814Z,21.66
2022-10-09T07:59:07.264Z,21.76
2022-10-09T08:01:36.151Z,21.72
2022-10-09T08:04:04.263Z,21.73
2022-10-09T08:06:32.686Z,21.89
2022-10-09T08:09:02.525Z,21.88
2022-10-09T08:11:31.107Z,22.14
2022-10-09T08:13:59.267Z,22.07
2022-10-09T08:16:28.199Z,22.27
2022-10-09T08:18:58.471Z,22.51
2022-10-09T08:21:28.672Z,22.83
2022-10-09T08:23:58.063Z,22.67
2022-10-09T08:26:30.258Z,23.17
2022-10-09T08:29:05.592Z,23.06
2022-10-09T08:31:33.205Z,22.82
2022-10-09T08:34:03.387Z,23.24
2022-10-09T08:36:31.547Z,23.18
2022-10-09T08:38:59.148Z,23.45
2022-10-09T08:41:29.819Z,23.70
2022-10-09T08:44:10.434Z,24.01
2022-10-09T08:46:46.975Z,23.72
2022-10-09T08:49:37.700Z,24.21
2022-10-09T08:52:36.161Z,24.64
2022-10-09T08:55:21.541Z,25.18
2022-10-09T08:57:52.165Z,25.00
2022-10-09T09:00:22.654Z,25.03
2022-10-09T09:03:09.201Z,25.95
2022-10-09T09:05:43.039Z,25.99
2022-10-09T09:08:44.280Z,26.10
2022-10-09T09:11:36.739Z,25.63
2022-10-09T09:14:14.383Z,25.84
2022-10-09T09:17:29.313Z,26.12
2022-10-09T09:20:03.707Z,25.49
2022-10-09T09:22:32.669Z,26.09
2022-10-09T09:25:17.887Z,26.54
2022-10-09T09:27:46.263Z,26.81
2022-10-09T09:30:51.977Z,26.87
2022-10-09T09:33:26.028Z,27.25
2022-10-09T09:36:09.123Z,26.81
2022-10-09T09:38:54.213Z,27.42
2022-10-09T09:41:25.725Z,27.58
2022-10-09T09:43:53.257Z,28.57
2022-10-09T09:46:24.428Z,27.52
2022-10-09T09:48:52.128Z,28.02
2022-10-09T09:51:28.674Z,27.58
2022-10-09T09:54:05.239Z,26.60
2022-10-09T09:57:10.449Z,27.23
2022-10-09T09:59:36.673Z,27.36
2022-10-09T10:02:11.792Z,26.88
2022-10-09T10:04:54.140Z,26.93
2022-10-09T10:07:36.487Z,27.57
2022-10-09T10:10:10.137Z,26.90
2022-10-09T10:12:59.390Z,27.16
2022-10-09T10:15:29.636Z,27.96
2022-10-09T10:18:17.547Z,28.17
2022-10-09T10:20:49.766Z,26.40
2022-10-09T10:23:40.908Z,25.43
2022-10-09T10:26:25.919Z,26.71
2022-10-09T10:29:34.759Z,25.87
2022-10-09T10:32:17.451Z,25.16
2022-10-09T10:34:58.007Z,25.48
2022-10-09T10:37:31.368Z,27.33
2022-10-09T10:40:01.797Z,26.91
2022-10-09T10:42:44.917Z,26.74
2022-10-09T10:45:26.367Z,26.73
2022-10-09T10:47:58.478Z,25.75
2022-10-09T10:50:31.147Z,25.62
2022-10-09T10:53:14.115Z,26.93
2022-10-09T10:56:09.181Z,27.88
2022-10-09T10:59:07.718Z,26.49
2022-10-09T11:01:57.922Z,25.66
2022-10-09T11:05:01.064Z,24.74
2022-10-09T11:08:03.573Z,24.44
2022-10-09T11:10:54.549Z,24.57
2022-10-09T11:13:56.220Z,25.30
2022-10-09T11:16:35.769Z,25.32
2022-10-09T11:19:20.789Z,25.13
2022-10-09T11:21:56.965Z,25.95
2022-10-09T11:24:59.636Z,27.10
2022-10-09T11:27:32.287Z,28.29
2022-10-09T11:30:15.639Z,28.20
2022-10-09T11:32:45.985Z,27.56
2022-10-09T11:35:22.252Z,26.34
2022-10-09T11:38:04.836Z,26.09
2022-10-09T11:40:38.260Z,25.99
2022-10-09T11:43:27.317Z,27.26
2022-10-09T12:14:29.681Z,27.84
2022-10-09T12:16:59.100Z,28.54
2022-10-09T12:19:38.265Z,29.00
2022-10-09T12:22:23.476Z,29.31
2022-10-09T12:24:55.232Z,29.30
2022-10-09T12:27:28.654Z,29.61
2022-10-09T12:29:59.734Z,29.22
2022-10-09T12:32:31.884Z,29.62
2022-10-09T12:35:04.710Z,29.80
2022-10-09T12:37:35.750Z,29.97
2022-10-09T12:40:31.681Z,30.68
2022-10-09T12:43:06.450Z,31.35
2022-10-09T12:45:34.002Z,31.10
2022-10-09T12:48:10.513Z,30.65
2022-10-09T12:50:38.796Z,31.56
2022-10-09T12:53:15.358Z,31.29
2022-10-09T12:55:50.161Z,30.32
2022-10-09T12:58:26.714Z,31.20
2022-10-09T13:01:01.617Z,31.34
2022-10-09T13:03:43.637Z,30.50
2022-10-09T13:06:20.959Z,32.41
2022-10-09T13:09:04.250Z,31.55
2022-10-09T13:11:43.091Z,32.14
2022-10-09T13:14:52.500Z,33.01
2022-10-09T13:17:29.360Z,33.66
2022-10-09T13:20:00.362Z,32.48
2022-10-09T13:22:35.048Z,32.30
2022-10-09T13:25:05.021Z,32.33
2022-10-09T13:27:37.461Z,33.24
2022-10-09T13:30:06.583Z,33.08
2022-10-09T13:32:34.102Z,33.55
2022-10-09T13:35:01.685Z,32.65
2022-10-09T13:37:29.720Z,30.37
2022-10-09T13:39:59.210Z,29.37
2022-10-09T13:42:31.448Z,28.10
2022-10-09T13:44:59.027Z,27.88
2022-10-09T13:47:26.918Z,30.02
2022-10-09T13:49:55.091Z,31.91
2022-10-09T13:52:22.625Z,32.45
2022-10-09T13:54:50.687Z,33.61
2022-10-09T13:57:18.177Z,32.96
2022-10-09T13:59:46.802Z,31.20
2022-10-09T14:02:14.879Z,30.83
2022-10-09T14:04:42.701Z,31.02
2022-10-09T14:07:10.813Z,31.74
2022-10-09T14:09:38.519Z,32.42
2022-10-09T14:12:06.521Z,32.98
2022-10-09T14:14:34.289Z,31.77
2022-10-09T14:17:01.865Z,29.57
2022-10-09T14:19:29.615Z,28.86
2022-10-09T14:21:58.584Z,29.22
2022-10-09T14:24:26.655Z,30.91
2022-10-09T14:26:55.204Z,29.93
2022-10-09T14:29:22.895Z,28.75
2022-10-09T14:31:53.951Z,28.84
2022-10-09T14:34:21.982Z,28.76
2022-10-09T14:36:50.330Z,28.36
2022-10-09T14:39:17.955Z,28.13
2022-10-09T14:41:46.001Z,28.53
2022-10-09T14:44:13.738Z,29.05
2022-10-09T14:46:41.444Z,27.84
2022-10-09T14:49:10.803Z,27.23
2022-10-09T14:51:40.512Z,28.25
2022-10-09T14:54:09.551Z,28.27
2022-10-09T14:56:37.756Z,27.58
2022-10-09T14:59:06.194Z,26.88
2022-10-09T15:01:34.920Z,26.63
2022-10-09T15:04:04.631Z,28.83
2022-10-09T15:06:34.133Z,30.48
2022-10-09T15:09:05.639Z,30.19
2022-10-09T15:11:35.345Z,29.53
2022-10-09T15:14:04.680Z,31.09
2022-10-09T15:16:32.714Z,30.04
2022-10-09T15:19:00.674Z,29.81
2022-10-09T15:21:33.147Z,28.97
2022-10-09T15:24:02.900Z,28.97
2022-10-09T15:26:36.303Z,28.68
2022-10-09T15:29:07.013Z,28.20
2022-10-09T15:31:39.927Z,27.02
2022-10-09T15:34:09.004Z,26.60
2022-10-09T15:36:40.020Z,25.67
2022-10-09T15:39:09.095Z,25.01
2022-10-09T15:41:39.514Z,24.66
2022-10-09T15:44:19.061Z,24.71
2022-10-09T15:46:48.139Z,24.54
2022-10-09T15:49:15.705Z,24.48
2022-10-09T15:51:43.263Z,24.46
2022-10-09T15:54:11.974Z,24.05
2022-10-09T15:56:41.458Z,23.83
2022-10-09T15:59:12.710Z,23.52
2022-10-09T16:01:40.834Z,23.55
2022-10-09T16:04:10.884Z,23.49
2022-10-09T16:06:38.837Z,23.32
2022-10-09T16:09:06.517Z,23.38
2022-10-09T16:11:34.774Z,23.16
2022-10-09T16:14:02.380Z,23.11
2022-10-09T16:16:30.476Z,23.10
2022-10-09T16:18:58.156Z,22.84
2022-10-09T16:21:28.549Z,22.84
2022-10-09T16:23:59.091Z,22.80
2022-10-09T16:26:29.464Z,22.63
2022-10-09T16:28:59.167Z,22.51
2022-10-09T16:31:34.954Z,22.35
2022-10-09T16:34:05.281Z,22.24
2022-10-09T16:36:33.480Z,22.19
2022-10-09T16:39:02.007Z,22.16
2022-10-09T16:41:29.606Z,22.08
2022-10-09T16:44:00.216Z,22.12
2022-10-09T16:46:31.871Z,22.13
2022-10-09T16:49:02.838Z,22.03
2022-10-09T16:51:34.982Z,21.97
2022-10-09T16:54:05.426Z,21.99
2022-10-09T16:56:36.945Z,21.95
2022-10-09T16:59:11.009Z,21.76
2022-10-09T17:01:43.650Z,21.61
2022-10-09T17:04:12.952Z,21.60
2022-10-09T17:06:42.103Z,21.52
2022-10-09T17:09:13.923Z,21.51
2022-10-09T17:11:43.405Z,21.57
2022-10-09T17:14:12.053Z,21.46
2022-10-09T17:16:41.264Z,21.41
2022-10-09T17:19:09.621Z,21.27
2022-10-09T17:21:37.571Z,21.18
2022-10-09T17:24:06.194Z,21.06
2022-10-09T17:26:35.167Z,21.01
2022-10-09T17:29:04.750Z,21.01
2022-10-09T17:31:32.442Z,20.97
2022-10-09T17:34:02.207Z,20.98
2022-10-09T17:36:32.418Z,20.90
2022-10-09T17:39:00.825Z,20.92
2022-10-09T17:41:29.328Z,20.88
2022-10-09T17:43:57.923Z,20.91
2022-10-09T17:46:28.374Z,20.78
2022-10-09T17:48:57.070Z,20.70
2022-10-09T17:51:28.602Z,20.61
2022-10-09T17:53:59.287Z,20.75
2022-10-09T17:56:28.076Z,20.65
2022-10-09T17:58:56.148Z,20.58
2022-10-09T18:01:24.479Z,20.49
2022-10-09T18:03:52.631Z,20.52
2022-10-09T18:06:24.977Z,20.62
2022-10-09T18:08:55.500Z,20.48
2022-10-09T18:11:25.498Z,20.51
2022-10-09T18:13:54.473Z,20.47
2022-10-09T18:16:35.429Z,20.44
2022-10-09T18:19:13.029Z,20.44
2022-10-09T18:21:44.276Z,20.46
2022-10-09T18:24:12.775Z,20.58
2022-10-09T18:26:42.260Z,20.59
2022-10-09T18:29:09.990Z,20.35
2022-10-09T18:31:38.612Z,20.32
2022-10-09T18:34:06.736Z,20.35
2022-10-09T18:36:35.007Z,20.28
2022-10-09T18:39:04.768Z,20.45
2022-10-09T18:41:32.292Z,20.35
2022-10-09T18:44:01.830Z,20.27
2022-10-09T18:46:38.255Z,20.25
2022-10-09T18:49:09.570Z,20.14
2022-10-09T18:51:41.647Z,20.26
2022-10-09T18:54:14.430Z,20.16
2022-10-09T18:56:45.230Z,20.16
2022-10-09T18:59:17.240Z,20.16
2022-10-09T19:01:44.843Z,20.26
2022-10-09T19:04:13.028Z,20.09
2022-10-09T19:06:40.742Z,20.09
2022-10-09T19:09:08.665Z,20.16
2022-10-09T19:11:36.628Z,20.32
2022-10-09T19:14:04.153Z,20.15
2022-10-09T19:16:33.895Z,20.08
2022-10-09T19:19:01.613Z,20.07
2022-10-09T19:21:29.839Z,20.06
2022-10-09T19:24:03.369Z,20.03
2022-10-09T19:26:30.890Z,19.93
2022-10-09T19:28:58.960Z,20.12
2022-10-09T19:31:26.617Z,20.07
2022-10-09T19:33:54.162Z,19.91
2022-10-09T19:36:21.708Z,19.93
2022-10-09T19:38:49.234Z,19.84
2022-10-09T19:41:16.779Z,19.90
2022-10-09T19:43:44.811Z,19.99
2022-10-09T19:46:17.334Z,19.87
2022-10-09T19:48:46.168Z,19.71
2022-10-09T19:51:17.299Z,19.69
2022-10-09T19:53:45.254Z,19.60
2022-10-09T19:56:19.773Z,19.57
2022-10-09T19:58:48.931Z,19.55
2022-10-09T20:01:19.847Z,19.59
2022-10-09T20:03:48.908Z,19.70
2022-10-09T20:06:16.393Z,19.58
2022-10-09T20:08:45.444Z,19.53
2022-10-09T20:11:13.971Z,19.43
2022-10-09T20:13:43.063Z,19.52
2022-10-09T20:16:15.148Z,19.50
2022-10-09T20:18:43.744Z,19.50
2022-10-09T20:21:14.061Z,19.56
2022-10-09T20:23:44.352Z,19.45
2022-10-09T20:26:17.302Z,19.56
2022-10-09T20:28:46.955Z,19.52
2022-10-09T20:31:19.567Z,19.56
2022-10-09T20:33:49.005Z,19.45
2022-10-09T20:36:37.466Z,19.51
2022-10-09T20:39:11.302Z,19.58
2022-10-09T20:41:39.778Z,19.47
2022-10-09T20:44:07.982Z,19.51
2022-10-09T20:46:37.577Z,19.39
2022-10-09T20:49:08.681Z,19.41
2022-10-09T20:51:37.552Z,19.26
2022-10-09T20:54:06.499Z,19.31
2022-10-09T20:56:34.816Z,19.24
2022-10-09T20:59:03.691Z,19.33
2022-10-09T21:01:31.797Z,19.23
2022-10-09T21:03:59.560Z,19.17
2022-10-09T21:06:27.185Z,19.15
2022-10-09T21:08:55.292Z,19.23
2022-10-09T21:11:24.091Z,19.16
2022-10-09T21:13:51.903Z,19.12
2022-10-09T21:16:22.084Z,19.21
2022-10-09T21:18:57.502Z,19.28
2022-10-09T21:21:26.538Z,19.22
2022-10-09T21:23:56.123Z,19.06
2022-10-09T21:26:24.020Z,19.10
2022-10-09T21:28:56.753Z,19.11
2022-10-09T21:31:28.649Z,19.06
2022-10-09T21:33:58.087Z,19.07
2022-10-09T21:37:02.169Z,19.01
2022-10-09T21:39:32.463Z,19.04
2022-10-09T21:41:59.956Z,18.99
2022-10-09T21:44:28.020Z,19.05
2022-10-09T21:46:56.457Z,18.98
2022-10-09T21:49:27.341Z,18.93
2022-10-09T21:51:56.062Z,18.94
2022-10-09T21:54:24.149Z,19.01
2022-10-09T21:56:52.110Z,19.03
2022-10-09T21:59:19.657Z,18.99
2022-10-09T22:01:47.370Z,19.04
2022-10-09T22:04:15.091Z,18.90
2022-10-09T22:06:43.478Z,19.02
2022-10-09T22:09:12.217Z,18.98
2022-10-09T22:11:39.811Z,18.88
2022-10-09T22:14:07.570Z,18.87
2022-10-09T22:16:35.113Z,18.92
2022-10-09T22:19:03.093Z,18.99
2022-10-09T22:21:31.322Z,18.95
2022-10-09T22:24:00.502Z,19.02
2022-10-09T22:26:28.218Z,19.07
2022-10-09T22:28:55.755Z,18.93
2022-10-09T22:31:25.615Z,18.97
2022-10-09T22:34:00.943Z,18.82
2022-10-09T22:36:31.675Z,18.83
2022-10-09T22:39:02.089Z,18.83
2022-10-09T22:41:30.798Z,18.95
2022-10-09T22:44:00.153Z,18.93
2022-10-09T22:46:34.720Z,18.82
2022-10-09T22:49:02.879Z,18.90
2022-10-09T22:51:31.595Z,18.85
2022-10-09T22:54:00.478Z,18.78
2022-10-09T22:56:38.165Z,18.82
2022-10-09T22:59:06.988Z,18.75
2022-10-09T23:01:39.725Z,18.84
2022-10-09T23:04:10.750Z,18.78
2022-10-09T23:06:38.806Z,18.86
2022-10-09T23:09:08.738Z,18.87
2022-10-09T23:11:36.976Z,18.92
2022-10-09T23:14:05.430Z,18.91
2022-10-09T23:16:34.064Z,18.78
2022-10-09T23:19:06.751Z,18.87
2022-10-09T23:21:37.856Z,18.90
2022-10-09T23:24:06.439Z,18.89
2022-10-09T23:26:36.943Z,18.73
2022-10-09T23:29:12.518Z,18.74
2022-10-09T23:31:40.638Z,18.71
2022-10-09T23:34:08.205Z,18.70
2022-10-09T23:36:36.311Z,18.74
2022-10-09T23:39:06.163Z,18.82
2022-10-09T23:41:34.850Z,18.88
2022-10-09T23:44:02.448Z,18.85
2022-10-09T23:46:33.867Z,18.88
2022-10-09T23:49:02.013Z,18.81
2022-10-09T23:51:30.110Z,18.80
2022-10-09T23:53:58.311Z,18.86
2022-10-09T23:56:32.281Z,18.90
2022-10-09T23:59:01.764Z,18.89
